Time;durP1;ratioP1;P1;durP2;ratioP2;P2;SDS_P1;SDS_P2;PMS_P1;PMS_P2;Temp;Humidity;BMP_temperature;BMP_pressure;BME280_temperature;BME280_humidity;BME280_pressure;Samples;Min_cycle;Max_cycle;Signal;HPM_P1;HPM_P2
2023/08/15 00:01:39;;;;;;;11.60;6.82;;;22.50;72.60;;;;;;5021434;28;20044;-52
2023/08/15 00:04:04;;;;;;;7.75;6.97;;;22.50;72.80;;;;;;5022448;28;20080;-56
2023/08/15 00:06:30;;;;;;;7.60;6.32;;;22.50;72.70;;;;;;5022641;28;20030;-56
2023/08/15 00:08:56;;;;;;;8.45;6.90;;;22.40;72.70;;;;;;5022181;28;20060;-57
2023/08/15 00:11:22;;;;;;;7.97;6.78;;;22.40;72.90;;;;;;5023605;28;20533;-57
2023/08/15 00:13:48;;;;;;;10.45;6.88;;;22.40;72.90;;;;;;5023010;28;20029;-57
2023/08/15 00:16:14;;;;;;;7.55;6.75;;;22.40;72.60;;;;;;5023646;28;20026;-56
2023/08/15 00:18:39;;;;;;;11.80;7.40;;;22.40;72.70;;;;;;5023302;28;20054;-56
2023/08/15 00:21:05;;;;;;;9.45;7.25;;;22.40;72.90;;;;;;5023183;28;20496;-56
2023/08/15 00:23:31;;;;;;;8.32;7.13;;;22.40;73.00;;;;;;5023324;28;20069;-53
2023/08/15 00:25:57;;;;;;;9.10;7.00;;;22.40;73.10;;;;;;5023188;28;20026;-57
2023/08/15 00:28:22;;;;;;;8.73;7.20;;;22.40;73.10;;;;;;5022495;28;20030;-56
2023/08/15 00:30:48;;;;;;;7.88;7.03;;;22.30;73.00;;;;;;5022727;28;20029;-57
2023/08/15 00:33:13;;;;;;;8.73;7.63;;;22.30;73.10;;;;;;5023071;28;20033;-56
2023/08/15 00:35:39;;;;;;;9.23;8.32;;;22.30;73.00;;;;;;5022557;28;20038;-55
2023/08/15 00:38:05;;;;;;;12.32;8.68;;;22.30;73.20;;;;;;5022774;28;20551;-56
2023/08/15 00:40:30;;;;;;;10.05;8.52;;;22.30;73.40;;;;;;5022951;28;20033;-55
2023/08/15 00:42:56;;;;;;;9.77;8.77;;;22.30;73.60;;;;;;5021432;28;20448;-55
2023/08/15 00:45:21;;;;;;;9.30;8.30;;;22.30;73.70;;;;;;5022427;28;20029;-51
2023/08/15 00:47:47;;;;;;;9.57;7.82;;;22.30;73.70;;;;;;5022408;28;20033;-56
2023/08/15 00:50:13;;;;;;;9.48;7.68;;;22.30;73.70;;;;;;5022840;28;20022;-52
2023/08/15 00:52:39;;;;;;;9.77;7.70;;;22.30;73.90;;;;;;5022193;28;20029;-57
2023/08/15 00:55:07;;;;;;;8.50;7.65;;;22.30;73.90;;;;;;5022135;28;20040;-56
2023/08/15 00:57:33;;;;;;;10.43;8.27;;;22.20;74.00;;;;;;5023075;28;20100;-56
2023/08/15 00:59:58;;;;;;;9.48;7.45;;;22.20;74.10;;;;;;5022240;28;20030;-55
2023/08/15 01:02:24;;;;;;;8.98;8.15;;;22.20;74.10;;;;;;5022484;28;20064;-54
2023/08/15 01:04:50;;;;;;;8.75;7.85;;;22.20;74.40;;;;;;5022224;28;20076;-54
2023/08/15 01:07:17;;;;;;;8.93;7.88;;;22.20;74.40;;;;;;5023302;28;20026;-53
2023/08/15 01:09:44;;;;;;;9.77;8.02;;;22.20;74.60;;;;;;5021782;28;20057;-56
2023/08/15 01:12:51;;;;;;;8.32;7.45;;;22.20;74.80;;;;;;5022131;28;20018;-54
2023/08/15 01:15:21;;;;;;;9.05;7.53;;;22.10;74.40;;;;;;5018161;28;20476;-56
2023/08/15 01:18:10;;;;;;;8.03;7.27;;;22.10;74.70;;;;;;5022208;28;20048;-56
2023/08/15 01:20:37;;;;;;;9.18;8.27;;;22.10;74.80;;;;;;5021672;28;20540;-53
2023/08/15 01:23:07;;;;;;;8.98;8.07;;;22.10;74.90;;;;;;5021950;28;20148;-56
2023/08/15 01:25:41;;;;;;;9.50;8.18;;;22.10;75.10;;;;;;5021810;28;20053;-57
2023/08/15 01:28:12;;;;;;;11.70;9.35;;;22.10;75.30;;;;;;5021743;28;20064;-55
2023/08/15 01:30:46;;;;;;;9.32;8.43;;;22.00;75.30;;;;;;5022330;28;20030;-53
2023/08/15 01:33:30;;;;;;;10.07;8.48;;;22.00;75.60;;;;;;5022510;28;20033;-50
2023/08/15 01:36:14;;;;;;;9.73;8.75;;;22.00;75.60;;;;;;5021629;28;20068;-57
2023/08/15 01:38:47;;;;;;;10.30;8.88;;;22.00;75.90;;;;;;5021750;28;20048;-56
2023/08/15 01:41:16;;;;;;;12.65;9.13;;;22.00;76.20;;;;;;5020977;28;20026;-52
2023/08/15 01:43:43;;;;;;;11.68;8.93;;;22.00;76.50;;;;;;5021939;28;20030;-54
2023/08/15 01:46:09;;;;;;;11.90;9.50;;;21.90;76.50;;;;;;5021748;28;20018;-54
2023/08/15 01:48:53;;;;;;;15.45;9.43;;;21.90;76.50;;;;;;5021494;28;20026;-55
2023/08/15 01:51:18;;;;;;;10.77;9.70;;;21.90;76.30;;;;;;5021457;28;20026;-57
2023/08/15 01:53:44;;;;;;;11.85;10.73;;;21.90;76.80;;;;;;5020898;28;20492;-57
2023/08/15 01:56:10;;;;;;;12.38;11.07;;;21.80;76.90;;;;;;5021338;28;20038;-56
2023/08/15 01:58:35;;;;;;;12.38;10.98;;;21.80;77.10;;;;;;5020888;28;20037;-56
2023/08/15 02:01:02;;;;;;;11.93;10.73;;;21.80;77.30;;;;;;5020879;28;20030;-54
2023/08/15 02:03:28;;;;;;;11.02;10.02;;;21.80;77.40;;;;;;5019556;28;20429;-56
2023/08/15 02:05:53;;;;;;;11.93;10.73;;;21.80;77.60;;;;;;5020637;28;20037;-55
2023/08/15 02:08:20;;;;;;;12.50;11.23;;;21.80;77.50;;;;;;5021538;28;20026;-56
2023/08/15 02:10:46;;;;;;;12.00;10.80;;;21.80;77.60;;;;;;5021143;28;20025;-55
2023/08/15 02:13:11;;;;;;;11.40;10.20;;;21.80;77.60;;;;;;5022113;28;20063;-55
2023/08/15 02:15:37;;;;;;;11.98;10.85;;;21.70;77.60;;;;;;5021175;28;20061;-55
2023/08/15 02:18:03;;;;;;;11.20;10.20;;;21.70;77.70;;;;;;5020854;28;20509;-55
2023/08/15 02:20:28;;;;;;;11.20;10.10;;;21.70;77.80;;;;;;5021158;28;20033;-55
2023/08/15 02:22:54;;;;;;;12.10;10.90;;;21.70;77.70;;;;;;5020912;28;20065;-58
2023/08/15 02:25:20;;;;;;;11.88;10.68;;;21.70;77.80;;;;;;5021631;28;20022;-56
2023/08/15 02:27:45;;;;;;;10.90;9.88;;;21.70;77.80;;;;;;5021224;28;20544;-53
2023/08/15 02:30:11;;;;;;;11.57;10.43;;;21.70;77.80;;;;;;5021310;28;20113;-56
2023/08/15 02:32:37;;;;;;;13.35;10.63;;;21.60;77.70;;;;;;5020682;28;20018;-57
2023/08/15 02:35:03;;;;;;;11.65;10.45;;;21.70;78.00;;;;;;5020856;28;20022;-53
2023/08/15 02:37:29;;;;;;;11.38;10.27;;;21.60;78.10;;;;;;5021170;28;20441;-56
2023/08/15 02:39:54;;;;;;;11.68;10.02;;;21.60;78.10;;;;;;5020395;28;20033;-55
2023/08/15 02:42:20;;;;;;;12.02;10.30;;;21.60;78.30;;;;;;5020904;28;20026;-55
2023/08/15 02:44:46;;;;;;;11.30;10.27;;;21.60;78.30;;;;;;5021436;28;20033;-56
2023/08/15 02:47:11;;;;;;;11.88;10.77;;;21.50;78.30;;;;;;5021223;28;20551;-56
2023/08/15 02:49:38;;;;;;;13.30;10.77;;;21.50;78.50;;;;;;5021152;28;20028;-56
2023/08/15 02:52:04;;;;;;;11.70;10.63;;;21.50;78.70;;;;;;5020611;28;20033;-56
2023/08/15 02:54:30;;;;;;;11.82;10.50;;;21.50;78.90;;;;;;5020441;28;20022;-57
2023/08/15 02:56:56;;;;;;;12.20;10.77;;;21.50;79.00;;;;;;5020848;28;20105;-56
2023/08/15 02:59:22;;;;;;;11.73;10.52;;;21.50;79.00;;;;;;5020869;28;20045;-52
2023/08/15 03:01:47;;;;;;;12.15;10.95;;;21.50;79.50;;;;;;5019926;28;20595;-56
2023/08/15 03:04:13;;;;;;;12.52;11.32;;;21.50;79.90;;;;;;5020733;28;20030;-52
2023/08/15 03:06:39;;;;;;;12.15;11.00;;;21.50;79.40;;;;;;5023603;28;20125;-56
2023/08/15 03:09:05;;;;;;;12.73;11.43;;;21.50;79.60;;;;;;5024126;28;20030;-55
2023/08/15 03:11:30;;;;;;;12.85;11.55;;;21.60;79.80;;;;;;5023870;28;20026;-57
2023/08/15 03:13:58;;;;;;;14.32;11.55;;;21.60;79.90;;;;;;5024133;28;20037;-55
2023/08/15 03:16:24;;;;;;;12.63;11.43;;;21.60;80.00;;;;;;5023548;28;20037;-57
2023/08/15 03:18:49;;;;;;;13.02;11.73;;;21.70;80.00;;;;;;5023722;28;20034;-56
2023/08/15 03:21:15;;;;;;;13.63;11.48;;;21.70;80.10;;;;;;5023694;28;20034;-57
2023/08/15 03:23:41;;;;;;;13.18;11.82;;;21.70;80.20;;;;;;5023443;28;20046;-55
2023/08/15 03:26:07;;;;;;;13.63;11.75;;;21.80;80.40;;;;;;5023385;28;20529;-56
2023/08/15 03:28:33;;;;;;;20.38;13.20;;;21.90;80.20;;;;;;5023104;28;20073;-56
2023/08/15 03:31:08;;;;;;;13.48;11.85;;;21.90;79.70;;;;;;5023398;28;20026;-55
2023/08/15 03:33:34;;;;;;;13.25;11.32;;;22.10;79.50;;;;;;5023013;28;20116;-55
2023/08/15 03:35:59;;;;;;;13.00;11.40;;;22.10;79.40;;;;;;5022974;28;20046;-57
2023/08/15 03:38:25;;;;;;;13.68;12.30;;;22.20;78.90;;;;;;5022917;28;20105;-55
2023/08/15 03:41:02;;;;;;;12.73;11.38;;;22.30;78.40;;;;;;5023597;28;20034;-57
2023/08/15 03:43:29;;;;;;;12.57;11.25;;;22.40;77.90;;;;;;5023154;28;20046;-58
2023/08/15 03:45:54;;;;;;;12.68;11.43;;;22.50;77.90;;;;;;5021511;28;20038;-53
2023/08/15 03:48:20;;;;;;;13.60;11.18;;;22.60;77.40;;;;;;5022611;28;20029;-56
2023/08/15 03:50:45;;;;;;;12.27;10.90;;;22.70;77.30;;;;;;5022759;28;20037;-52
2023/08/15 03:53:11;;;;;;;12.05;10.85;;;22.70;77.10;;;;;;5022681;28;20145;-57
2023/08/15 03:55:37;;;;;;;12.32;11.13;;;22.80;77.00;;;;;;5022759;28;20088;-57
2023/08/15 03:58:02;;;;;;;13.57;12.18;;;22.80;77.00;;;;;;5023130;28;20084;-57
2023/08/15 04:00:28;;;;;;;14.63;11.32;;;22.90;77.40;;;;;;5022702;28;20057;-53
2023/08/15 04:02:54;;;;;;;12.25;10.63;;;23.10;77.90;;;;;;5019065;28;20036;-57
2023/08/15 04:05:20;;;;;;;18.40;10.90;;;23.30;78.10;;;;;;5019023;28;20029;-57
2023/08/15 04:07:45;;;;;;;15.68;10.27;;;23.50;78.00;;;;;;5018744;28;20033;-58
2023/08/15 04:10:13;;;;;;;13.23;10.20;;;23.80;77.20;;;;;;5017547;28;20034;-56
2023/08/15 04:12:43;;;;;;;9.90;9.00;;;24.10;75.80;;;;;;5017538;28;20018;-55
2023/08/15 04:15:09;;;;;;;11.10;9.68;;;24.40;74.30;;;;;;5017209;28;20518;-56
2023/08/15 04:17:35;;;;;;;11.07;9.98;;;24.60;73.40;;;;;;5017092;28;20104;-53
2023/08/15 04:20:00;;;;;;;11.15;9.43;;;24.70;72.20;;;;;;5016459;28;20033;-54
2023/08/15 04:22:26;;;;;;;10.75;9.57;;;24.80;71.30;;;;;;5016043;28;20052;-57
2023/08/15 04:24:52;;;;;;;12.80;10.05;;;25.00;70.90;;;;;;5015908;28;20026;-57
2023/08/15 04:27:17;;;;;;;14.40;9.90;;;25.00;70.50;;;;;;5015608;28;20103;-57
2023/08/15 04:29:43;;;;;;;13.35;10.13;;;25.00;70.30;;;;;;5015692;28;20032;-56
2023/08/15 04:32:09;;;;;;;11.32;9.93;;;25.00;70.80;;;;;;5015789;28;20028;-52
2023/08/15 04:34:34;;;;;;;14.90;9.85;;;25.10;69.90;;;;;;5015151;28;20026;-54
2023/08/15 04:37:00;;;;;;;14.43;10.68;;;25.10;69.80;;;;;;5015553;28;20493;-55
2023/08/15 04:39:27;;;;;;;12.13;8.65;;;25.10;69.50;;;;;;5016774;28;20049;-53
2023/08/15 04:41:52;;;;;;;11.52;9.48;;;25.10;69.60;;;;;;5024716;28;20030;-54
2023/08/15 04:44:18;;;;;;;14.60;9.85;;;25.10;69.60;;;;;;5024017;28;20366;-57
2023/08/15 04:46:44;;;;;;;12.43;9.73;;;25.20;69.80;;;;;;5025562;28;20389;-54
2023/08/15 04:49:10;;;;;;;10.82;9.32;;;25.30;69.80;;;;;;5027337;28;20022;-57
2023/08/15 04:51:35;;;;;;;13.30;8.02;;;25.50;69.40;;;;;;5025259;28;20052;-52
2023/08/15 04:54:01;;;;;;;9.68;8.68;;;25.60;69.30;;;;;;5027925;28;20037;-55
2023/08/15 04:56:27;;;;;;;9.90;8.25;;;25.60;69.20;;;;;;5028162;28;20026;-52
2023/08/15 04:58:53;;;;;;;12.98;8.57;;;25.60;69.40;;;;;;5028632;28;20517;-56
2023/08/15 05:01:18;;;;;;;9.43;7.90;;;25.60;70.20;;;;;;5012527;28;20084;-54
2023/08/15 05:03:44;;;;;;;8.90;7.43;;;25.60;71.20;;;;;;5029881;28;20061;-54
2023/08/15 05:06:10;;;;;;;9.15;8.00;;;25.60;71.10;;;;;;5029056;28;20026;-54
2023/08/15 05:08:35;;;;;;;10.63;7.68;;;25.70;71.20;;;;;;5028855;28;20296;-55
2023/08/15 05:11:01;;;;;;;9.80;8.38;;;25.80;70.70;;;;;;5030131;28;20582;-55
2023/08/15 05:13:27;;;;;;;10.27;8.52;;;25.90;71.00;;;;;;5028571;28;20018;-56
2023/08/15 05:15:53;;;;;;;11.70;9.23;;;25.90;70.20;;;;;;5031343;28;20045;-53
2023/08/15 05:18:19;;;;;;;11.05;9.95;;;25.90;70.10;;;;;;5030461;28;20037;-49
2023/08/15 05:20:47;;;;;;;11.82;8.75;;;25.90;70.00;;;;;;5031845;28;20030;-51
2023/08/15 05:23:16;;;;;;;12.25;9.57;;;25.90;69.00;;;;;;5032820;28;20062;-52
2023/08/15 05:25:43;;;;;;;12.07;10.55;;;25.90;68.70;;;;;;5032029;28;20025;-54
2023/08/15 05:28:10;;;;;;;15.50;11.07;;;25.90;68.40;;;;;;5032030;28;20021;-53
2023/08/15 05:30:36;;;;;;;13.88;11.75;;;25.80;68.50;;;;;;5031836;28;20026;-54
2023/08/15 05:33:02;;;;;;;12.90;11.23;;;25.80;68.60;;;;;;5012002;28;20029;-57
2023/08/15 05:35:28;;;;;;;13.95;11.77;;;25.90;68.80;;;;;;5011877;28;20080;-57
2023/08/15 05:37:54;;;;;;;13.73;12.10;;;26.10;68.90;;;;;;5012363;28;20018;-57
2023/08/15 05:40:20;;;;;;;13.02;10.50;;;26.30;68.50;;;;;;5013239;28;20080;-54
2023/08/15 05:42:46;;;;;;;12.68;10.27;;;26.50;68.30;;;;;;5028087;28;20060;-53
2023/08/15 05:45:12;;;;;;;12.02;10.82;;;26.60;67.80;;;;;;5029183;28;20029;-55
2023/08/15 05:47:38;;;;;;;12.02;10.80;;;26.60;67.80;;;;;;5030963;28;20034;-53
2023/08/15 05:50:04;;;;;;;13.32;10.98;;;26.60;68.20;;;;;;5029911;28;20034;-56
2023/08/15 05:52:29;;;;;;;11.88;10.55;;;26.60;68.40;;;;;;5029373;28;20505;-52
2023/08/15 05:54:55;;;;;;;9.52;8.55;;;26.60;68.70;;;;;;5029616;28;20244;-57
2023/08/15 05:57:21;;;;;;;8.82;7.43;;;26.60;68.90;;;;;;5029357;28;20044;-56
2023/08/15 05:59:47;;;;;;;9.20;6.88;;;26.60;67.80;;;;;;5027471;28;20030;-51
2023/08/15 06:02:14;;;;;;;8.85;7.95;;;26.60;67.60;;;;;;5027526;28;20397;-53
2023/08/15 06:04:39;;;;;;;9.00;7.93;;;26.60;67.90;;;;;;5028678;28;20037;-56
2023/08/15 06:07:05;;;;;;;9.00;8.20;;;26.60;67.90;;;;;;5027822;28;20030;-55
2023/08/15 06:09:31;;;;;;;9.65;8.30;;;26.70;67.60;;;;;;5030014;28;20037;-55
2023/08/15 06:11:57;;;;;;;11.48;9.30;;;26.60;67.90;;;;;;5030128;28;20030;-57
2023/08/15 06:14:23;;;;;;;9.63;8.57;;;26.60;68.80;;;;;;5029530;28;20024;-55
2023/08/15 06:16:49;;;;;;;9.10;8.20;;;26.60;67.80;;;;;;5029642;28;20056;-52
2023/08/15 06:19:15;;;;;;;8.38;7.57;;;26.60;67.30;;;;;;5030811;28;20033;-53
2023/08/15 06:21:43;;;;;;;10.32;7.88;;;26.60;66.60;;;;;;5027962;28;20109;-57
2023/08/15 06:24:10;;;;;;;9.05;7.75;;;26.60;66.60;;;;;;5020368;28;20053;-53
2023/08/15 06:26:36;;;;;;;8.70;7.65;;;26.60;66.30;;;;;;5027587;28;20029;-54
2023/08/15 06:29:03;;;;;;;9.32;7.22;;;26.60;66.30;;;;;;5024858;28;20105;-56
2023/08/15 06:31:28;;;;;;;9.48;8.57;;;26.60;66.00;;;;;;5028952;28;20026;-55
2023/08/15 06:33:54;;;;;;;10.18;8.45;;;26.60;65.80;;;;;;5028223;28;20069;-55
2023/08/15 06:36:19;;;;;;;8.10;6.97;;;26.60;65.90;;;;;;5028222;28;20029;-55
2023/08/15 06:38:45;;;;;;;9.43;7.40;;;26.60;66.00;;;;;;5028239;28;20038;-57
2023/08/15 06:41:12;;;;;;;9.85;7.50;;;26.60;66.10;;;;;;5030345;28;20125;-54
2023/08/15 06:43:37;;;;;;;8.88;7.90;;;26.70;66.00;;;;;;5032793;28;20026;-53
2023/08/15 06:46:03;;;;;;;9.10;8.10;;;26.70;65.90;;;;;;5029335;28;20034;-57
2023/08/15 06:48:29;;;;;;;9.75;8.18;;;26.70;66.10;;;;;;5027626;28;20085;-56
2023/08/15 06:50:55;;;;;;;9.25;8.18;;;26.70;66.10;;;;;;5028886;28;20041;-53
2023/08/15 06:53:21;;;;;;;11.20;8.95;;;26.70;66.60;;;;;;5029125;28;20089;-57
2023/08/15 06:55:49;;;;;;;10.15;8.70;;;26.70;66.50;;;;;;5028771;28;20041;-55
2023/08/15 06:58:15;;;;;;;9.55;8.65;;;26.70;66.40;;;;;;5027730;28;20038;-57
2023/08/15 07:00:43;;;;;;;10.45;9.40;;;26.70;66.40;;;;;;5027129;28;20030;-57
2023/08/15 07:03:08;;;;;;;10.73;8.98;;;26.70;66.70;;;;;;5025460;28;20705;-56
2023/08/15 07:05:34;;;;;;;12.30;9.57;;;26.70;66.70;;;;;;5026717;28;20025;-57
2023/08/15 07:08:00;;;;;;;12.32;10.27;;;26.70;67.20;;;;;;5022094;28;20033;-52
2023/08/15 07:10:26;;;;;;;13.27;11.88;;;26.70;66.50;;;;;;5019950;28;20049;-58
2023/08/15 07:12:52;;;;;;;15.15;13.65;;;26.70;66.50;;;;;;5023045;28;20397;-56
2023/08/15 07:15:17;;;;;;;14.48;13.00;;;26.70;66.60;;;;;;5022394;28;20029;-58
2023/08/15 07:17:43;;;;;;;18.17;15.27;;;26.80;66.80;;;;;;5016694;28;20044;-56
2023/08/15 07:20:12;;;;;;;16.67;14.10;;;26.70;67.00;;;;;;5019234;28;20038;-54
2023/08/15 07:22:40;;;;;;;17.75;13.98;;;26.80;67.20;;;;;;5016209;28;20054;-52
2023/08/15 07:25:06;;;;;;;15.93;14.23;;;26.70;67.10;;;;;;5018711;28;20049;-55
2023/08/15 07:27:32;;;;;;;18.23;16.23;;;26.70;67.20;;;;;;5018829;28;20030;-58
2023/08/15 07:29:58;;;;;;;16.00;14.40;;;26.70;67.60;;;;;;5021623;28;20037;-56
2023/08/15 07:32:27;;;;;;;18.90;17.00;;;26.80;67.90;;;;;;5021091;28;20034;-55
2023/08/15 07:34:53;;;;;;;19.30;17.30;;;26.80;68.00;;;;;;5026929;28;20049;-54
2023/08/15 07:37:18;;;;;;;20.15;18.35;;;26.80;68.30;;;;;;5022952;28;20030;-55
2023/08/15 07:39:44;;;;;;;24.58;22.17;;;26.80;68.80;;;;;;5021608;28;20090;-52
2023/08/15 07:42:10;;;;;;;24.58;22.15;;;26.80;68.70;;;;;;5018122;28;20042;-56
2023/08/15 07:44:35;;;;;;;28.02;25.15;;;26.80;69.00;;;;;;5019081;28;20034;-55
2023/08/15 07:47:01;;;;;;;27.23;24.33;;;26.90;69.30;;;;;;5023188;28;20061;-54
2023/08/15 07:49:30;;;;;;;28.13;25.23;;;26.90;69.40;;;;;;5018761;28;20045;-55
2023/08/15 07:51:56;;;;;;;34.15;25.50;;;26.90;69.40;;;;;;5024289;28;20037;-52
2023/08/15 07:54:21;;;;;;;38.35;25.40;;;26.90;69.50;;;;;;5026320;28;20021;-54
2023/08/15 07:56:47;;;;;;;43.42;27.30;;;26.90;69.00;;;;;;5024827;28;20014;-53
2023/08/15 07:59:13;;;;;;;42.70;29.58;;;26.90;68.80;;;;;;5023018;28;20053;-53
2023/08/15 08:01:38;;;;;;;42.25;28.30;;;26.90;68.80;;;;;;5030933;28;20026;-52
2023/08/15 08:04:04;;;;;;;66.32;39.22;;;26.90;69.10;;;;;;5025651;28;20037;-54
2023/08/15 08:06:30;;;;;;;67.15;38.63;;;26.90;69.30;;;;;;5020325;28;20819;-57
2023/08/15 08:08:57;;;;;;;71.85;40.88;;;26.90;69.50;;;;;;5018206;28;20030;-57
2023/08/15 08:11:23;;;;;;;61.08;38.80;;;26.90;69.40;;;;;;5020595;28;20026;-54
2023/08/15 08:13:48;;;;;;;62.15;38.42;;;26.90;68.90;;;;;;5023145;28;20048;-54
2023/08/15 08:16:17;;;;;;;54.90;35.42;;;26.90;68.90;;;;;;5017874;28;20034;-56
2023/08/15 08:18:42;;;;;;;50.03;30.17;;;26.90;68.80;;;;;;5011692;28;20041;-58
2023/08/15 08:21:09;;;;;;;53.45;34.40;;;26.90;68.20;;;;;;5018489;28;20030;-58
2023/08/15 08:23:35;;;;;;;63.88;36.88;;;26.90;67.60;;;;;;5019497;28;20054;-55
2023/08/15 08:26:01;;;;;;;66.43;40.70;;;26.90;67.90;;;;;;5014260;28;20109;-57
2023/08/15 08:28:27;;;;;;;65.20;38.22;;;26.90;68.00;;;;;;5021919;28;20029;-56
2023/08/15 08:30:52;;;;;;;70.50;43.00;;;27.00;67.40;;;;;;5019773;28;20030;-55
2023/08/15 08:33:18;;;;;;;67.75;40.35;;;26.90;66.80;;;;;;5026117;28;20033;-54
2023/08/15 08:35:43;;;;;;;51.58;32.92;;;26.90;67.00;;;;;;5026988;28;20018;-51
2023/08/15 08:38:09;;;;;;;37.95;27.67;;;26.90;67.50;;;;;;5025730;28;20038;-54
2023/08/15 08:40:35;;;;;;;36.08;25.33;;;26.90;67.30;;;;;;5027756;28;20149;-53
2023/08/15 08:43:00;;;;;;;27.48;20.30;;;26.90;67.10;;;;;;5031066;28;20085;-54
2023/08/15 08:45:29;;;;;;;23.23;15.88;;;26.90;66.50;;;;;;5024281;28;20014;-52
2023/08/15 08:47:55;;;;;;;12.57;10.82;;;26.90;66.20;;;;;;5028197;28;20030;-51
2023/08/15 08:50:21;;;;;;;10.15;9.07;;;26.90;66.50;;;;;;5026150;28;20026;-56
2023/08/15 08:52:50;;;;;;;8.35;7.55;;;26.90;66.60;;;;;;5015050;28;20030;-52
2023/08/15 08:55:19;;;;;;;9.40;6.45;;;26.90;67.00;;;;;;5028755;28;20022;-54
2023/08/15 08:57:48;;;;;;;7.22;5.80;;;26.90;66.70;;;;;;5026983;28;20030;-52
2023/08/15 09:00:16;;;;;;;6.40;5.65;;;26.90;66.80;;;;;;5026113;28;20034;-54
2023/08/15 09:02:43;;;;;;;6.50;5.40;;;26.90;66.40;;;;;;5021688;28;20027;-52
2023/08/15 09:05:09;;;;;;;6.95;6.00;;;26.90;66.50;;;;;;5024130;28;20030;-54
2023/08/15 09:07:35;;;;;;;7.13;5.72;;;26.80;66.30;;;;;;5027521;28;20144;-55
2023/08/15 09:10:02;;;;;;;7.85;5.90;;;26.80;66.90;;;;;;5023233;28;20025;-56
2023/08/15 09:12:35;;;;;;;7.05;6.35;;;26.80;67.30;;;;;;5023169;28;20041;-49
2023/08/15 09:15:03;;;;;;;6.15;5.55;;;26.80;67.70;;;;;;5024062;28;20037;-55
2023/08/15 09:17:31;;;;;;;6.60;5.90;;;26.80;67.90;;;;;;5019408;28;20030;-54
2023/08/15 09:19:56;;;;;;;6.70;6.10;;;26.80;68.00;;;;;;5024774;28;20042;-55
2023/08/15 09:22:23;;;;;;;7.88;6.35;;;26.80;68.60;;;;;;5019162;28;20038;-55
2023/08/15 09:24:51;;;;;;;6.80;6.20;;;26.80;68.50;;;;;;5024242;28;20081;-53
2023/08/15 09:27:19;;;;;;;7.03;5.70;;;26.80;68.40;;;;;;5021504;28;20033;-52
2023/08/15 09:29:45;;;;;;;7.85;6.53;;;26.80;68.50;;;;;;5023970;28;20025;-51
2023/08/15 09:32:11;;;;;;;8.88;7.15;;;26.80;68.80;;;;;;5022496;28;20102;-49
2023/08/15 09:34:37;;;;;;;9.40;6.55;;;26.80;69.10;;;;;;5024959;28;20026;-51
2023/08/15 09:37:02;;;;;;;6.40;5.80;;;26.80;69.20;;;;;;5027412;28;20053;-55
2023/08/15 09:39:28;;;;;;;8.52;5.80;;;26.80;69.20;;;;;;5022111;28;20036;-56
2023/08/15 09:41:55;;;;;;;7.45;5.47;;;26.80;68.40;;;;;;5026623;28;20627;-52
2023/08/15 09:44:32;;;;;;;6.65;5.95;;;26.80;68.70;;;;;;5029416;28;20028;-55
2023/08/15 09:47:00;;;;;;;6.75;5.95;;;26.80;69.00;;;;;;5022511;28;20037;-57
2023/08/15 09:49:29;;;;;;;6.55;5.90;;;26.80;69.20;;;;;;5029049;28;20034;-55
2023/08/15 09:52:01;;;;;;;6.60;6.00;;;26.80;69.60;;;;;;5020826;28;20090;-55
2023/08/15 09:54:30;;;;;;;8.02;6.65;;;26.80;70.00;;;;;;5024094;28;20080;-53
2023/08/15 09:56:57;;;;;;;7.35;5.88;;;26.80;70.40;;;;;;5025051;28;20022;-53
2023/08/15 09:59:23;;;;;;;6.85;6.18;;;26.70;70.10;;;;;;5022259;28;20052;-52
2023/08/15 10:01:52;;;;;;;8.30;5.95;;;26.70;70.60;;;;;;5024846;28;20022;-56
2023/08/15 10:04:19;;;;;;;6.93;6.22;;;26.70;70.10;;;;;;5024879;28;20030;-54
2023/08/15 10:06:46;;;;;;;7.28;6.22;;;26.70;70.20;;;;;;5021601;28;20246;-54
2023/08/15 10:09:14;;;;;;;6.43;5.82;;;26.70;69.80;;;;;;5017913;28;20030;-53
2023/08/15 10:11:46;;;;;;;5.57;5.07;;;26.70;69.60;;;;;;5023339;28;20025;-50
2023/08/15 10:14:17;;;;;;;7.28;5.13;;;26.70;69.30;;;;;;5023200;28;20026;-57
2023/08/15 10:16:44;;;;;;;5.47;4.68;;;26.70;69.00;;;;;;5022856;28;20037;-53
2023/08/15 10:19:16;;;;;;;6.47;4.68;;;26.60;68.70;;;;;;5021719;28;20033;-53
2023/08/15 10:21:52;;;;;;;5.28;4.60;;;26.70;68.60;;;;;;5025884;28;20045;-55
2023/08/15 10:24:18;;;;;;;5.25;4.72;;;26.60;68.60;;;;;;5022493;28;20054;-52
2023/08/15 10:26:47;;;;;;;6.50;4.55;;;26.60;69.20;;;;;;5023315;28;20048;-54
2023/08/15 10:29:12;;;;;;;5.53;4.93;;;26.60;69.30;;;;;;5024077;28;20044;-54
2023/08/15 10:31:39;;;;;;;5.85;4.60;;;26.60;69.10;;;;;;5025836;28;20045;-53
2023/08/15 10:34:10;;;;;;;6.05;4.57;;;26.60;68.50;;;;;;5023177;28;20026;-54
2023/08/15 10:36:36;;;;;;;5.70;4.85;;;26.60;69.00;;;;;;5025114;28;20409;-51
2023/08/15 10:39:07;;;;;;;5.45;4.93;;;26.60;69.00;;;;;;5038491;28;20042;-55
2023/08/15 10:41:37;;;;;;;6.75;4.80;;;26.60;68.90;;;;;;5019939;28;20026;-55
2023/08/15 10:44:07;;;;;;;5.50;4.22;;;26.60;68.90;;;;;;5023573;28;20082;-56
2023/08/15 10:46:35;;;;;;;6.65;5.03;;;26.60;67.80;;;;;;5036428;28;20049;-55
2023/08/15 10:49:11;;;;;;;4.95;4.10;;;26.60;67.20;;;;;;5027664;28;20026;-57
2023/08/15 10:51:41;;;;;;;6.15;4.70;;;26.60;66.00;;;;;;5021145;28;20797;-54
2023/08/15 10:54:13;;;;;;;8.48;4.80;;;26.50;65.60;;;;;;5020906;28;20057;-52
2023/08/15 10:56:41;;;;;;;5.22;4.28;;;26.50;66.30;;;;;;5014286;28;20505;-56
2023/08/15 10:59:25;;;;;;;5.60;4.47;;;26.50;66.30;;;;;;5019900;28;20030;-54
2023/08/15 11:01:50;;;;;;;5.63;4.63;;;26.50;67.10;;;;;;5023539;28;20034;-53
2023/08/15 11:04:18;;;;;;;5.82;4.65;;;26.50;67.20;;;;;;5018496;28;20075;-51
2023/08/15 11:06:48;;;;;;;6.20;4.38;;;26.50;66.40;;;;;;5022146;28;20039;-54
2023/08/15 11:09:14;;;;;;;4.95;4.28;;;26.60;65.20;;;;;;5015638;28;20022;-53
2023/08/15 11:11:40;;;;;;;4.97;3.95;;;26.50;64.30;;;;;;5020996;28;20036;-53
2023/08/15 11:14:18;;;;;;;5.75;4.30;;;26.50;64.10;;;;;;5024390;28;20037;-55
2023/08/15 11:16:45;;;;;;;4.82;4.05;;;26.60;64.40;;;;;;5023158;28;20038;-53
2023/08/15 11:19:11;;;;;;;6.18;4.10;;;26.50;64.00;;;;;;5017675;28;20086;-55
2023/08/15 11:21:37;;;;;;;3.95;3.60;;;26.60;63.90;;;;;;5019489;28;20076;-52
2023/08/15 11:24:03;;;;;;;4.78;3.75;;;26.60;63.50;;;;;;5019158;28;20065;-52
2023/08/15 11:26:28;;;;;;;4.97;4.13;;;26.60;63.10;;;;;;5022347;28;20018;-52
2023/08/15 11:28:54;;;;;;;5.53;3.80;;;26.60;63.30;;;;;;5029991;28;20021;-53
2023/08/15 11:31:20;;;;;;;5.30;4.15;;;26.60;63.30;;;;;;5025114;28;20041;-53
2023/08/15 11:33:51;;;;;;;4.30;3.90;;;26.60;63.60;;;;;;5026532;28;20050;-52
2023/08/15 11:36:17;;;;;;;4.90;3.97;;;26.60;63.70;;;;;;5027938;28;20060;-53
2023/08/15 11:38:43;;;;;;;5.68;3.90;;;26.60;63.80;;;;;;5027586;28;20056;-54
2023/08/15 11:41:09;;;;;;;5.97;3.60;;;26.60;64.10;;;;;;5026177;28;20026;-56
2023/08/15 11:43:35;;;;;;;5.07;3.70;;;26.60;63.40;;;;;;5026210;28;20106;-53
2023/08/15 11:46:02;;;;;;;3.88;3.47;;;26.60;63.10;;;;;;5027304;28;20057;-54
2023/08/15 11:48:30;;;;;;;6.45;3.65;;;26.60;62.70;;;;;;5026244;28;20030;-52
2023/08/15 11:50:56;;;;;;;5.05;3.92;;;26.60;63.00;;;;;;5022643;28;20080;-55
2023/08/15 11:53:21;;;;;;;4.10;3.70;;;26.60;62.90;;;;;;5027930;28;20033;-56
2023/08/15 11:55:47;;;;;;;4.38;3.47;;;26.60;63.40;;;;;;5022850;28;20093;-52
2023/08/15 11:58:26;;;;;;;5.30;3.97;;;26.60;62.60;;;;;;5025315;28;20056;-57
2023/08/15 12:00:56;;;;;;;5.28;4.10;;;26.60;62.60;;;;;;5020156;28;20081;-55
2023/08/15 12:03:24;;;;;;;5.60;4.55;;;26.60;62.60;;;;;;5025174;28;20074;-53
2023/08/15 12:05:56;;;;;;;4.15;3.50;;;26.60;63.00;;;;;;5024488;28;21062;-53
2023/08/15 12:08:29;;;;;;;4.63;4.13;;;26.60;63.00;;;;;;5025479;28;20006;-56
2023/08/15 12:10:56;;;;;;;5.38;3.80;;;26.60;62.80;;;;;;5022642;28;20432;-54
2023/08/15 12:13:48;;;;;;;4.20;3.70;;;26.60;62.90;;;;;;5021992;28;20030;-57
2023/08/15 12:16:14;;;;;;;4.60;3.50;;;26.70;62.80;;;;;;5022972;28;20066;-57
2023/08/15 12:18:40;;;;;;;5.43;3.50;;;26.70;62.70;;;;;;5022239;28;20038;-54
2023/08/15 12:21:07;;;;;;;4.40;3.50;;;26.70;62.60;;;;;;5022983;28;20049;-51
2023/08/15 12:23:33;;;;;;;5.35;3.88;;;26.70;62.70;;;;;;5026072;28;20057;-53
2023/08/15 12:25:58;;;;;;;5.57;4.45;;;26.70;63.00;;;;;;5027643;28;20040;-52
2023/08/15 12:28:24;;;;;;;4.75;3.92;;;26.70;63.30;;;;;;5025442;28;20027;-58
2023/08/15 12:30:50;;;;;;;4.15;3.75;;;26.70;63.20;;;;;;5028558;28;20030;-56
2023/08/15 12:33:15;;;;;;;4.50;4.03;;;26.70;63.40;;;;;;5025008;28;20053;-54
2023/08/15 12:35:41;;;;;;;4.18;3.78;;;26.80;63.90;;;;;;5026897;28;20029;-54
2023/08/15 12:38:07;;;;;;;5.97;4.13;;;26.80;63.90;;;;;;5025370;28;20034;-56